sensor_id;sensor_type;location;lat;lon;timestamp;temperature;humidity
26743;DHT22;14341;51.256;22.478;2022-10-26T00:00:21;11.40;99.90
26743;DHT22;14341;51.256;22.478;2022-10-26T00:03:24;11.50;99.90
26743;DHT22;14341;51.256;22.478;2022-10-26T00:06:28;11.50;99.90
26743;DHT22;14341;51.256;22.478;2022-10-26T00:09:31;11.50;99.90
26743;DHT22;14341;51.256;22.478;2022-10-26T00:12:36;11.50;99.90
26743;DHT22;14341;51.256;22.478;2022-10-26T00:15:40;11.50;99.90
26743;DHT22;14341;51.256;22.478;2022-10-26T00:18:44;11.60;99.90
26743;DHT22;14341;51.256;22.478;2022-10-26T00:21:48;11.50;99.90
26743;DHT22;14341;51.256;22.478;2022-10-26T00:24:51;11.50;99.90
26743;DHT22;14341;51.256;22.478;2022-10-26T00:27:56;11.60;99.90
26743;DHT22;14341;51.256;22.478;2022-10-26T00:31:00;11.60;99.90
26743;DHT22;14341;51.256;22.478;2022-10-26T00:34:04;11.50;99.90
26743;DHT22;14341;51.256;22.478;2022-10-26T00:37:07;11.60;99.90
26743;DHT22;14341;51.256;22.478;2022-10-26T00:40:11;11.50;99.90
26743;DHT22;14341;51.256;22.478;2022-10-26T00:43:34;11.50;99.90
26743;DHT22;14341;51.256;22.478;2022-10-26T00:46:38;11.40;99.90
26743;DHT22;14341;51.256;22.478;2022-10-26T00:49:42;11.40;99.90
26743;DHT22;14341;51.256;22.478;2022-10-26T00:52:48;11.40;99.90
26743;DHT22;14341;51.256;22.478;2022-10-26T00:55:52;11.30;99.90
26743;DHT22;14341;51.256;22.478;2022-10-26T00:59:02;11.40;99.90
26743;DHT22;14341;51.256;22.478;2022-10-26T01:02:06;11.50;99.90
26743;DHT22;14341;51.256;22.478;2022-10-26T01:05:10;11.50;99.90
26743;DHT22;14341;51.256;22.478;2022-10-26T01:08:15;11.50;99.90
26743;DHT22;14341;51.256;22.478;2022-10-26T01:11:19;11.50;99.90
26743;DHT22;14341;51.256;22.478;2022-10-26T01:14:26;11.60;99.90
26743;DHT22;14341;51.256;22.478;2022-10-26T01:17:42;11.60;99.90
26743;DHT22;14341;51.256;22.478;2022-10-26T01:21:09;11.60;99.90
26743;DHT22;14341;51.256;22.478;2022-10-26T01:24:39;11.50;99.90
26743;DHT22;14341;51.256;22.478;2022-10-26T01:27:48;11.40;99.90
26743;DHT22;14341;51.256;22.478;2022-10-26T01:30:57;11.40;99.90
26743;DHT22;14341;51.256;22.478;2022-10-26T01:34:07;11.40;99.90
26743;DHT22;14341;51.256;22.478;2022-10-26T01:37:12;11.40;99.90
26743;DHT22;14341;51.256;22.478;2022-10-26T01:40:22;11.40;99.90
26743;DHT22;14341;51.256;22.478;2022-10-26T01:43:30;11.40;99.90
26743;DHT22;14341;51.256;22.478;2022-10-26T01:46:38;11.50;99.90
26743;DHT22;14341;51.256;22.478;2022-10-26T01:49:45;11.50;99.90
26743;DHT22;14341;51.256;22.478;2022-10-26T01:52:49;11.50;99.90
26743;DHT22;14341;51.256;22.478;2022-10-26T01:55:53;11.50;99.90
26743;DHT22;14341;51.256;22.478;2022-10-26T02:02:54;11.40;99.90
26743;DHT22;14341;51.256;22.478;2022-10-26T02:06:06;11.50;99.90
26743;DHT22;14341;51.256;22.478;2022-10-26T02:09:19;11.50;99.90
26743;DHT22;14341;51.256;22.478;2022-10-26T02:12:32;11.50;99.90
26743;DHT22;14341;51.256;22.478;2022-10-26T02:15:41;11.50;99.90
26743;DHT22;14341;51.256;22.478;2022-10-26T02:18:55;11.50;99.90
26743;DHT22;14341;51.256;22.478;2022-10-26T02:22:05;11.50;99.90
26743;DHT22;14341;51.256;22.478;2022-10-26T02:25:16;11.50;99.90
26743;DHT22;14341;51.256;22.478;2022-10-26T02:28:26;11.50;99.90
26743;DHT22;14341;51.256;22.478;2022-10-26T02:31:31;11.40;99.90
26743;DHT22;14341;51.256;22.478;2022-10-26T02:34:37;11.40;99.90
26743;DHT22;14341;51.256;22.478;2022-10-26T02:37:43;11.40;99.90
26743;DHT22;14341;51.256;22.478;2022-10-26T02:40:49;11.30;99.90
26743;DHT22;14341;51.256;22.478;2022-10-26T02:43:58;11.30;99.90
26743;DHT22;14341;51.256;22.478;2022-10-26T02:47:02;11.30;99.90
26743;DHT22;14341;51.256;22.478;2022-10-26T02:50:07;11.30;99.90
26743;DHT22;14341;51.256;22.478;2022-10-26T02:53:17;11.30;99.90
26743;DHT22;14341;51.256;22.478;2022-10-26T02:56:27;11.30;99.90
26743;DHT22;14341;51.256;22.478;2022-10-26T02:59:34;11.30;99.90
26743;DHT22;14341;51.256;22.478;2022-10-26T03:02:39;11.30;99.90
26743;DHT22;14341;51.256;22.478;2022-10-26T03:05:50;11.20;99.90
26743;DHT22;14341;51.256;22.478;2022-10-26T03:08:54;11.30;99.90
26743;DHT22;14341;51.256;22.478;2022-10-26T03:11:57;11.30;99.90
26743;DHT22;14341;51.256;22.478;2022-10-26T03:15:01;11.20;99.90
26743;DHT22;14341;51.256;22.478;2022-10-26T03:18:05;11.20;99.90
26743;DHT22;14341;51.256;22.478;2022-10-26T03:21:09;11.30;99.90
26743;DHT22;14341;51.256;22.478;2022-10-26T03:24:13;11.30;99.90
26743;DHT22;14341;51.256;22.478;2022-10-26T03:27:17;11.30;99.90
26743;DHT22;14341;51.256;22.478;2022-10-26T03:30:20;11.20;99.90
26743;DHT22;14341;51.256;22.478;2022-10-26T03:33:23;11.20;99.90
26743;DHT22;14341;51.256;22.478;2022-10-26T03:36:30;11.20;99.90
26743;DHT22;14341;51.256;22.478;2022-10-26T03:39:33;11.10;99.90
26743;DHT22;14341;51.256;22.478;2022-10-26T03:42:37;11.10;99.90
26743;DHT22;14341;51.256;22.478;2022-10-26T03:45:41;11.10;99.90
26743;DHT22;14341;51.256;22.478;2022-10-26T03:48:45;11.20;99.90
26743;DHT22;14341;51.256;22.478;2022-10-26T03:51:49;11.20;99.90
26743;DHT22;14341;51.256;22.478;2022-10-26T03:54:52;11.20;99.90
26743;DHT22;14341;51.256;22.478;2022-10-26T03:57:56;11.10;99.90
26743;DHT22;14341;51.256;22.478;2022-10-26T04:00:59;11.10;99.90
26743;DHT22;14341;51.256;22.478;2022-10-26T04:04:02;11.10;99.90
26743;DHT22;14341;51.256;22.478;2022-10-26T04:07:07;11.20;99.90
26743;DHT22;14341;51.256;22.478;2022-10-26T04:10:10;11.10;99.90
26743;DHT22;14341;51.256;22.478;2022-10-26T04:13:13;11.10;99.90
26743;DHT22;14341;51.256;22.478;2022-10-26T04:16:17;11.10;99.90
26743;DHT22;14341;51.256;22.478;2022-10-26T04:19:20;11.00;99.90
26743;DHT22;14341;51.256;22.478;2022-10-26T04:22:25;11.00;99.90
26743;DHT22;14341;51.256;22.478;2022-10-26T04:25:28;11.10;99.90
26743;DHT22;14341;51.256;22.478;2022-10-26T04:28:34;11.10;99.90
26743;DHT22;14341;51.256;22.478;2022-10-26T04:31:37;11.10;99.90
26743;DHT22;14341;51.256;22.478;2022-10-26T04:34:42;11.10;99.90
26743;DHT22;14341;51.256;22.478;2022-10-26T04:37:47;11.10;99.90
26743;DHT22;14341;51.256;22.478;2022-10-26T04:40:50;11.10;99.90
26743;DHT22;14341;51.256;22.478;2022-10-26T04:43:54;11.10;99.90
26743;DHT22;14341;51.256;22.478;2022-10-26T04:47:00;11.10;99.90
26743;DHT22;14341;51.256;22.478;2022-10-26T04:50:08;11.10;99.90
26743;DHT22;14341;51.256;22.478;2022-10-26T04:53:14;11.10;99.90
26743;DHT22;14341;51.256;22.478;2022-10-26T04:56:17;11.10;99.90
26743;DHT22;14341;51.256;22.478;2022-10-26T04:59:20;11.10;99.90
26743;DHT22;14341;51.256;22.478;2022-10-26T05:02:24;11.00;99.90
26743;DHT22;14341;51.256;22.478;2022-10-26T05:05:29;11.00;99.90
26743;DHT22;14341;51.256;22.478;2022-10-26T05:08:33;11.00;99.90
26743;DHT22;14341;51.256;22.478;2022-10-26T05:11:37;11.00;99.90
26743;DHT22;14341;51.256;22.478;2022-10-26T05:14:40;11.00;99.90
26743;DHT22;14341;51.256;22.478;2022-10-26T05:17:43;11.00;99.90
26743;DHT22;14341;51.256;22.478;2022-10-26T05:20:47;11.00;99.90
26743;DHT22;14341;51.256;22.478;2022-10-26T05:23:53;11.00;99.90
26743;DHT22;14341;51.256;22.478;2022-10-26T05:26:56;11.00;99.90
26743;DHT22;14341;51.256;22.478;2022-10-26T05:30:00;11.00;99.90
26743;DHT22;14341;51.256;22.478;2022-10-26T05:33:04;11.00;99.90
26743;DHT22;14341;51.256;22.478;2022-10-26T05:36:08;11.10;99.90
26743;DHT22;14341;51.256;22.478;2022-10-26T05:39:13;11.10;99.90
26743;DHT22;14341;51.256;22.478;2022-10-26T05:42:16;11.10;99.90
26743;DHT22;14341;51.256;22.478;2022-10-26T05:45:21;11.10;99.90
26743;DHT22;14341;51.256;22.478;2022-10-26T05:48:24;11.10;99.90
26743;DHT22;14341;51.256;22.478;2022-10-26T05:51:27;11.10;99.90
26743;DHT22;14341;51.256;22.478;2022-10-26T05:54:32;11.20;99.90
26743;DHT22;14341;51.256;22.478;2022-10-26T05:57:36;11.10;99.90
26743;DHT22;14341;51.256;22.478;2022-10-26T06:00:45;11.20;99.90
26743;DHT22;14341;51.256;22.478;2022-10-26T06:04:06;11.20;99.90
26743;DHT22;14341;51.256;22.478;2022-10-26T06:07:13;11.20;99.90
26743;DHT22;14341;51.256;22.478;2022-10-26T06:10:19;11.20;99.90
26743;DHT22;14341;51.256;22.478;2022-10-26T06:13:23;11.20;99.90
26743;DHT22;14341;51.256;22.478;2022-10-26T06:16:35;11.20;99.90
26743;DHT22;14341;51.256;22.478;2022-10-26T06:19:54;11.30;99.90
26743;DHT22;14341;51.256;22.478;2022-10-26T06:23:13;11.30;99.90
26743;DHT22;14341;51.256;22.478;2022-10-26T06:26:29;11.20;99.90
26743;DHT22;14341;51.256;22.478;2022-10-26T06:29:42;11.20;99.90
26743;DHT22;14341;51.256;22.478;2022-10-26T06:32:50;11.20;99.90
26743;DHT22;14341;51.256;22.478;2022-10-26T06:36:21;11.20;99.90
26743;DHT22;14341;51.256;22.478;2022-10-26T06:39:26;11.20;99.90
26743;DHT22;14341;51.256;22.478;2022-10-26T06:42:35;11.20;99.90
26743;DHT22;14341;51.256;22.478;2022-10-26T06:45:41;11.30;99.90
26743;DHT22;14341;51.256;22.478;2022-10-26T06:48:53;11.30;99.90
26743;DHT22;14341;51.256;22.478;2022-10-26T06:52:00;11.20;99.90
26743;DHT22;14341;51.256;22.478;2022-10-26T06:55:06;11.30;99.90
26743;DHT22;14341;51.256;22.478;2022-10-26T06:58:17;11.40;99.90
26743;DHT22;14341;51.256;22.478;2022-10-26T07:01:21;11.40;99.90
26743;DHT22;14341;51.256;22.478;2022-10-26T07:04:25;11.40;99.90
26743;DHT22;14341;51.256;22.478;2022-10-26T07:07:30;11.50;99.90
26743;DHT22;14341;51.256;22.478;2022-10-26T07:10:33;11.50;99.90
26743;DHT22;14341;51.256;22.478;2022-10-26T07:13:42;11.50;99.90
26743;DHT22;14341;51.256;22.478;2022-10-26T07:16:46;11.50;99.90
26743;DHT22;14341;51.256;22.478;2022-10-26T07:19:49;11.50;99.90
26743;DHT22;14341;51.256;22.478;2022-10-26T07:22:52;11.50;99.90
26743;DHT22;14341;51.256;22.478;2022-10-26T07:25:58;11.50;99.90
26743;DHT22;14341;51.256;22.478;2022-10-26T07:29:03;11.40;99.90
26743;DHT22;14341;51.256;22.478;2022-10-26T07:32:06;11.30;99.90
26743;DHT22;14341;51.256;22.478;2022-10-26T07:35:10;11.30;99.90
26743;DHT22;14341;51.256;22.478;2022-10-26T07:38:13;11.30;99.90
26743;DHT22;14341;51.256;22.478;2022-10-26T07:41:17;11.30;99.90
26743;DHT22;14341;51.256;22.478;2022-10-26T07:44:21;11.30;99.90
26743;DHT22;14341;51.256;22.478;2022-10-26T07:47:24;11.30;99.90
26743;DHT22;14341;51.256;22.478;2022-10-26T07:50:28;11.20;99.90
26743;DHT22;14341;51.256;22.478;2022-10-26T07:53:31;11.20;99.90
26743;DHT22;14341;51.256;22.478;2022-10-26T07:56:34;11.30;99.90
26743;DHT22;14341;51.256;22.478;2022-10-26T07:59:39;11.40;99.90
26743;DHT22;14341;51.256;22.478;2022-10-26T08:02:42;11.60;99.90
26743;DHT22;14341;51.256;22.478;2022-10-26T08:05:46;11.80;99.90
26743;DHT22;14341;51.256;22.478;2022-10-26T08:08:52;11.90;99.90
26743;DHT22;14341;51.256;22.478;2022-10-26T08:11:55;12.10;99.90
26743;DHT22;14341;51.256;22.478;2022-10-26T08:14:59;12.20;99.90
26743;DHT22;14341;51.256;22.478;2022-10-26T08:18:03;12.30;99.90
26743;DHT22;14341;51.256;22.478;2022-10-26T08:21:10;12.50;99.90
26743;DHT22;14341;51.256;22.478;2022-10-26T08:24:22;12.50;99.90
26743;DHT22;14341;51.256;22.478;2022-10-26T08:27:26;12.50;99.90
26743;DHT22;14341;51.256;22.478;2022-10-26T08:30:31;12.50;99.90
26743;DHT22;14341;51.256;22.478;2022-10-26T08:33:36;12.40;99.90
26743;DHT22;14341;51.256;22.478;2022-10-26T08:36:44;12.50;99.90
26743;DHT22;14341;51.256;22.478;2022-10-26T08:39:48;12.40;99.90
26743;DHT22;14341;51.256;22.478;2022-10-26T08:43:00;12.40;99.90
26743;DHT22;14341;51.256;22.478;2022-10-26T08:46:11;12.40;99.90
26743;DHT22;14341;51.256;22.478;2022-10-26T08:49:19;12.50;99.90
26743;DHT22;14341;51.256;22.478;2022-10-26T08:52:25;12.60;99.90
26743;DHT22;14341;51.256;22.478;2022-10-26T08:55:39;12.80;99.90
26743;DHT22;14341;51.256;22.478;2022-10-26T08:58:47;12.70;99.90
26743;DHT22;14341;51.256;22.478;2022-10-26T09:01:54;12.70;99.90
26743;DHT22;14341;51.256;22.478;2022-10-26T09:04:58;12.70;99.90
26743;DHT22;14341;51.256;22.478;2022-10-26T09:08:08;12.80;99.90
26743;DHT22;14341;51.256;22.478;2022-10-26T09:11:24;12.70;99.90
26743;DHT22;14341;51.256;22.478;2022-10-26T09:14:38;12.50;99.90
26743;DHT22;14341;51.256;22.478;2022-10-26T09:17:53;12.50;99.90
26743;DHT22;14341;51.256;22.478;2022-10-26T09:21:09;12.70;99.90
26743;DHT22;14341;51.256;22.478;2022-10-26T09:24:15;12.60;99.90
26743;DHT22;14341;51.256;22.478;2022-10-26T09:27:26;12.60;99.90
26743;DHT22;14341;51.256;22.478;2022-10-26T09:30:30;12.60;99.90
26743;DHT22;14341;51.256;22.478;2022-10-26T09:33:36;12.60;99.90
26743;DHT22;14341;51.256;22.478;2022-10-26T09:36:41;12.50;99.90
26743;DHT22;14341;51.256;22.478;2022-10-26T09:39:49;12.60;99.90
26743;DHT22;14341;51.256;22.478;2022-10-26T09:42:57;12.60;99.90
26743;DHT22;14341;51.256;22.478;2022-10-26T09:46:02;12.60;99.90
26743;DHT22;14341;51.256;22.478;2022-10-26T09:49:09;12.50;99.90
26743;DHT22;14341;51.256;22.478;2022-10-26T09:52:15;12.40;99.90
26743;DHT22;14341;51.256;22.478;2022-10-26T09:55:18;12.40;99.90
26743;DHT22;14341;51.256;22.478;2022-10-26T09:58:26;12.20;99.90
26743;DHT22;14341;51.256;22.478;2022-10-26T10:01:32;12.20;99.90
26743;DHT22;14341;51.256;22.478;2022-10-26T10:04:46;12.20;99.90
26743;DHT22;14341;51.256;22.478;2022-10-26T10:07:50;12.10;99.90
26743;DHT22;14341;51.256;22.478;2022-10-26T10:10:55;12.30;99.90
26743;DHT22;14341;51.256;22.478;2022-10-26T10:14:06;12.50;99.90
26743;DHT22;14341;51.256;22.478;2022-10-26T10:17:19;12.50;99.90
26743;DHT22;14341;51.256;22.478;2022-10-26T10:20:27;12.60;99.90
26743;DHT22;14341;51.256;22.478;2022-10-26T10:23:32;12.50;99.90
26743;DHT22;14341;51.256;22.478;2022-10-26T10:26:55;12.40;99.90
26743;DHT22;14341;51.256;22.478;2022-10-26T10:30:18;12.40;99.90
26743;DHT22;14341;51.256;22.478;2022-10-26T10:33:22;12.50;99.90
26743;DHT22;14341;51.256;22.478;2022-10-26T10:36:35;12.50;99.90
26743;DHT22;14341;51.256;22.478;2022-10-26T10:39:39;12.60;99.90
26743;DHT22;14341;51.256;22.478;2022-10-26T10:42:44;12.60;99.90
26743;DHT22;14341;51.256;22.478;2022-10-26T10:45:51;12.50;99.90
26743;DHT22;14341;51.256;22.478;2022-10-26T10:49:02;12.50;99.90
26743;DHT22;14341;51.256;22.478;2022-10-26T10:52:07;12.40;99.90
26743;DHT22;14341;51.256;22.478;2022-10-26T10:55:24;12.50;99.90
26743;DHT22;14341;51.256;22.478;2022-10-26T10:58:32;12.60;99.90
26743;DHT22;14341;51.256;22.478;2022-10-26T11:01:38;12.60;99.90
26743;DHT22;14341;51.256;22.478;2022-10-26T11:04:57;12.60;99.90
26743;DHT22;14341;51.256;22.478;2022-10-26T11:08:06;12.80;99.90
26743;DHT22;14341;51.256;22.478;2022-10-26T11:11:13;12.90;99.90
26743;DHT22;14341;51.256;22.478;2022-10-26T11:14:20;12.80;99.90
26743;DHT22;14341;51.256;22.478;2022-10-26T11:17:29;13.00;99.90
26743;DHT22;14341;51.256;22.478;2022-10-26T11:20:35;13.10;99.90
26743;DHT22;14341;51.256;22.478;2022-10-26T11:23:45;13.20;99.90
26743;DHT22;14341;51.256;22.478;2022-10-26T11:26:54;13.30;99.90
26743;DHT22;14341;51.256;22.478;2022-10-26T11:30:02;13.40;99.90
26743;DHT22;14341;51.256;22.478;2022-10-26T11:33:11;13.60;99.90
26743;DHT22;14341;51.256;22.478;2022-10-26T11:36:19;13.90;99.90
26743;DHT22;14341;51.256;22.478;2022-10-26T11:39:33;14.20;99.90
26743;DHT22;14341;51.256;22.478;2022-10-26T11:42:41;14.30;99.90
26743;DHT22;14341;51.256;22.478;2022-10-26T11:45:56;14.10;99.90
26743;DHT22;14341;51.256;22.478;2022-10-26T11:49:05;14.00;99.90
26743;DHT22;14341;51.256;22.478;2022-10-26T11:52:15;14.00;99.90
26743;DHT22;14341;51.256;22.478;2022-10-26T11:55:21;13.90;99.90
26743;DHT22;14341;51.256;22.478;2022-10-26T11:58:26;14.00;99.90
26743;DHT22;14341;51.256;22.478;2022-10-26T12:01:31;13.90;99.90
26743;DHT22;14341;51.256;22.478;2022-10-26T12:04:36;13.90;99.90
26743;DHT22;14341;51.256;22.478;2022-10-26T12:07:43;14.00;99.90
26743;DHT22;14341;51.256;22.478;2022-10-26T12:10:57;14.10;99.90
26743;DHT22;14341;51.256;22.478;2022-10-26T12:14:10;14.40;99.90
26743;DHT22;14341;51.256;22.478;2022-10-26T12:17:20;14.40;99.90
26743;DHT22;14341;51.256;22.478;2022-10-26T12:20:59;14.40;99.90
26743;DHT22;14341;51.256;22.478;2022-10-26T12:24:23;14.60;99.90
26743;DHT22;14341;51.256;22.478;2022-10-26T12:27:48;14.80;99.90
26743;DHT22;14341;51.256;22.478;2022-10-26T12:30:52;14.90;99.90
26743;DHT22;14341;51.256;22.478;2022-10-26T12:34:22;14.90;99.90
26743;DHT22;14341;51.256;22.478;2022-10-26T12:37:34;15.00;99.90
26743;DHT22;14341;51.256;22.478;2022-10-26T12:40:42;14.90;99.90
26743;DHT22;14341;51.256;22.478;2022-10-26T12:43:47;14.70;99.90
26743;DHT22;14341;51.256;22.478;2022-10-26T12:46:50;14.70;99.90
26743;DHT22;14341;51.256;22.478;2022-10-26T12:49:58;14.60;99.90
26743;DHT22;14341;51.256;22.478;2022-10-26T12:53:06;14.60;99.90
26743;DHT22;14341;51.256;22.478;2022-10-26T12:56:16;14.30;99.90
26743;DHT22;14341;51.256;22.478;2022-10-26T12:59:26;14.30;99.90
26743;DHT22;14341;51.256;22.478;2022-10-26T13:02:47;14.40;99.90
26743;DHT22;14341;51.256;22.478;2022-10-26T13:06:13;14.40;99.90
26743;DHT22;14341;51.256;22.478;2022-10-26T13:09:21;14.30;99.90
26743;DHT22;14341;51.256;22.478;2022-10-26T13:12:25;14.20;99.90
26743;DHT22;14341;51.256;22.478;2022-10-26T13:15:36;14.10;99.90
26743;DHT22;14341;51.256;22.478;2022-10-26T13:18:41;14.30;99.90
26743;DHT22;14341;51.256;22.478;2022-10-26T13:21:46;14.40;99.90
26743;DHT22;14341;51.256;22.478;2022-10-26T13:24:53;14.40;99.90
26743;DHT22;14341;51.256;22.478;2022-10-26T13:28:03;14.50;99.90
26743;DHT22;14341;51.256;22.478;2022-10-26T13:31:13;15.00;99.90
26743;DHT22;14341;51.256;22.478;2022-10-26T13:34:20;15.10;99.90
26743;DHT22;14341;51.256;22.478;2022-10-26T13:37:26;15.50;99.90
26743;DHT22;14341;51.256;22.478;2022-10-26T13:40:31;15.90;99.90
26743;DHT22;14341;51.256;22.478;2022-10-26T13:43:35;16.50;99.90
26743;DHT22;14341;51.256;22.478;2022-10-26T13:46:41;16.70;94.60
26743;DHT22;14341;51.256;22.478;2022-10-26T13:49:45;16.80;88.80
26743;DHT22;14341;51.256;22.478;2022-10-26T13:52:52;17.00;76.90
26743;DHT22;14341;51.256;22.478;2022-10-26T13:56:02;16.40;79.30
26743;DHT22;14341;51.256;22.478;2022-10-26T13:59:09;15.90;99.90
26743;DHT22;14341;51.256;22.478;2022-10-26T14:02:21;15.50;99.90
26743;DHT22;14341;51.256;22.478;2022-10-26T14:05:25;15.20;99.90
26743;DHT22;14341;51.256;22.478;2022-10-26T14:08:29;15.10;99.90
26743;DHT22;14341;51.256;22.478;2022-10-26T14:11:35;14.80;99.90
26743;DHT22;14341;51.256;22.478;2022-10-26T14:14:39;14.40;99.90
26743;DHT22;14341;51.256;22.478;2022-10-26T14:17:48;14.20;99.90
26743;DHT22;14341;51.256;22.478;2022-10-26T14:20:56;14.00;99.90
26743;DHT22;14341;51.256;22.478;2022-10-26T14:24:00;13.80;99.90
26743;DHT22;14341;51.256;22.478;2022-10-26T14:27:14;13.70;99.90
26743;DHT22;14341;51.256;22.478;2022-10-26T14:30:23;13.70;99.90
26743;DHT22;14341;51.256;22.478;2022-10-26T14:33:28;13.70;99.90
26743;DHT22;14341;51.256;22.478;2022-10-26T14:36:35;13.50;99.90
26743;DHT22;14341;51.256;22.478;2022-10-26T14:39:42;13.40;99.90
26743;DHT22;14341;51.256;22.478;2022-10-26T14:42:47;13.20;99.90
26743;DHT22;14341;51.256;22.478;2022-10-26T14:45:53;13.10;99.90
26743;DHT22;14341;51.256;22.478;2022-10-26T14:49:01;13.10;99.90
26743;DHT22;14341;51.256;22.478;2022-10-26T14:52:05;13.00;99.90
26743;DHT22;14341;51.256;22.478;2022-10-26T14:55:13;13.00;99.90
26743;DHT22;14341;51.256;22.478;2022-10-26T14:58:20;12.90;99.90
26743;DHT22;14341;51.256;22.478;2022-10-26T15:01:30;12.70;99.90
26743;DHT22;14341;51.256;22.478;2022-10-26T15:04:41;12.50;99.90
26743;DHT22;14341;51.256;22.478;2022-10-26T15:07:44;12.30;99.90
26743;DHT22;14341;51.256;22.478;2022-10-26T15:10:48;12.20;99.90
26743;DHT22;14341;51.256;22.478;2022-10-26T15:13:53;11.90;99.90
26743;DHT22;14341;51.256;22.478;2022-10-26T15:16:57;11.70;99.90
26743;DHT22;14341;51.256;22.478;2022-10-26T15:20:04;11.40;99.90
26743;DHT22;14341;51.256;22.478;2022-10-26T15:23:12;11.20;99.90
26743;DHT22;14341;51.256;22.478;2022-10-26T15:26:16;11.00;99.90
26743;DHT22;14341;51.256;22.478;2022-10-26T15:29:38;10.90;99.90
26743;DHT22;14341;51.256;22.478;2022-10-26T15:32:42;10.70;99.90
26743;DHT22;14341;51.256;22.478;2022-10-26T15:35:46;10.40;99.90
26743;DHT22;14341;51.256;22.478;2022-10-26T15:38:50;10.30;99.90
26743;DHT22;14341;51.256;22.478;2022-10-26T15:41:57;10.10;99.90
26743;DHT22;14341;51.256;22.478;2022-10-26T15:45:01;9.90;99.90
26743;DHT22;14341;51.256;22.478;2022-10-26T15:48:21;9.80;99.90
26743;DHT22;14341;51.256;22.478;2022-10-26T15:51:30;9.60;99.90
26743;DHT22;14341;51.256;22.478;2022-10-26T15:54:33;9.50;99.90
26743;DHT22;14341;51.256;22.478;2022-10-26T15:57:37;9.50;99.90
26743;DHT22;14341;51.256;22.478;2022-10-26T16:00:41;9.40;99.90
26743;DHT22;14341;51.256;22.478;2022-10-26T16:03:44;9.30;99.90
26743;DHT22;14341;51.256;22.478;2022-10-26T16:06:49;9.20;99.90
26743;DHT22;14341;51.256;22.478;2022-10-26T16:09:56;9.10;99.90
26743;DHT22;14341;51.256;22.478;2022-10-26T16:13:11;9.00;99.90
26743;DHT22;14341;51.256;22.478;2022-10-26T16:16:16;9.00;99.90
26743;DHT22;14341;51.256;22.478;2022-10-26T16:19:19;9.00;99.90
26743;DHT22;14341;51.256;22.478;2022-10-26T16:22:33;9.00;99.90
26743;DHT22;14341;51.256;22.478;2022-10-26T16:25:41;8.80;99.90
26743;DHT22;14341;51.256;22.478;2022-10-26T16:28:45;8.70;99.90
26743;DHT22;14341;51.256;22.478;2022-10-26T16:31:48;8.70;99.90
26743;DHT22;14341;51.256;22.478;2022-10-26T16:34:52;8.60;99.90
26743;DHT22;14341;51.256;22.478;2022-10-26T16:37:57;8.60;99.90
26743;DHT22;14341;51.256;22.478;2022-10-26T16:41:01;8.60;99.90
26743;DHT22;14341;51.256;22.478;2022-10-26T16:44:05;8.60;99.90
26743;DHT22;14341;51.256;22.478;2022-10-26T16:47:09;8.50;99.90
26743;DHT22;14341;51.256;22.478;2022-10-26T16:50:12;8.50;99.90
26743;DHT22;14341;51.256;22.478;2022-10-26T16:53:17;8.40;99.90
26743;DHT22;14341;51.256;22.478;2022-10-26T16:56:23;8.30;99.90
26743;DHT22;14341;51.256;22.478;2022-10-26T16:59:27;8.10;99.90
26743;DHT22;14341;51.256;22.478;2022-10-26T17:02:31;8.10;99.90
26743;DHT22;14341;51.256;22.478;2022-10-26T17:05:34;8.00;99.90
26743;DHT22;14341;51.256;22.478;2022-10-26T17:08:39;7.90;99.90
26743;DHT22;14341;51.256;22.478;2022-10-26T17:11:44;7.80;99.90
26743;DHT22;14341;51.256;22.478;2022-10-26T17:14:48;7.80;99.90
26743;DHT22;14341;51.256;22.478;2022-10-26T17:17:54;7.80;99.90
26743;DHT22;14341;51.256;22.478;2022-10-26T17:20:57;7.70;99.90
26743;DHT22;14341;51.256;22.478;2022-10-26T17:24:04;7.70;99.90
26743;DHT22;14341;51.256;22.478;2022-10-26T17:27:08;7.70;99.90
26743;DHT22;14341;51.256;22.478;2022-10-26T17:30:13;7.60;99.90
26743;DHT22;14341;51.256;22.478;2022-10-26T17:33:21;7.60;99.90
26743;DHT22;14341;51.256;22.478;2022-10-26T17:36:25;7.60;99.90
26743;DHT22;14341;51.256;22.478;2022-10-26T17:39:37;7.50;99.90
26743;DHT22;14341;51.256;22.478;2022-10-26T17:42:41;7.40;99.90
26743;DHT22;14341;51.256;22.478;2022-10-26T17:45:46;7.30;99.90
26743;DHT22;14341;51.256;22.478;2022-10-26T17:48:53;7.10;99.90
26743;DHT22;14341;51.256;22.478;2022-10-26T17:51:57;7.00;99.90
26743;DHT22;14341;51.256;22.478;2022-10-26T17:55:03;7.00;99.90
26743;DHT22;14341;51.256;22.478;2022-10-26T17:58:07;6.90;99.90
26743;DHT22;14341;51.256;22.478;2022-10-26T18:01:12;6.90;99.90
26743;DHT22;14341;51.256;22.478;2022-10-26T18:04:15;7.00;99.90
26743;DHT22;14341;51.256;22.478;2022-10-26T18:07:19;7.00;99.90
26743;DHT22;14341;51.256;22.478;2022-10-26T18:10:24;6.90;99.90
26743;DHT22;14341;51.256;22.478;2022-10-26T18:13:39;6.80;99.90
26743;DHT22;14341;51.256;22.478;2022-10-26T18:16:42;6.90;99.90
26743;DHT22;14341;51.256;22.478;2022-10-26T18:19:46;6.90;99.90
26743;DHT22;14341;51.256;22.478;2022-10-26T18:22:49;6.90;99.90
26743;DHT22;14341;51.256;22.478;2022-10-26T18:26:01;6.80;99.90
26743;DHT22;14341;51.256;22.478;2022-10-26T18:29:12;6.80;99.90
26743;DHT22;14341;51.256;22.478;2022-10-26T18:32:15;6.70;99.90
26743;DHT22;14341;51.256;22.478;2022-10-26T18:35:19;6.60;99.90
26743;DHT22;14341;51.256;22.478;2022-10-26T18:38:22;6.50;99.90
26743;DHT22;14341;51.256;22.478;2022-10-26T18:41:27;6.50;99.90
26743;DHT22;14341;51.256;22.478;2022-10-26T18:44:30;6.40;99.90
26743;DHT22;14341;51.256;22.478;2022-10-26T18:47:33;6.30;99.90
26743;DHT22;14341;51.256;22.478;2022-10-26T18:50:37;6.30;99.90
26743;DHT22;14341;51.256;22.478;2022-10-26T18:53:41;6.30;99.90
26743;DHT22;14341;51.256;22.478;2022-10-26T18:56:46;6.20;99.90
26743;DHT22;14341;51.256;22.478;2022-10-26T18:59:50;6.20;99.90
26743;DHT22;14341;51.256;22.478;2022-10-26T19:02:56;6.40;99.90
26743;DHT22;14341;51.256;22.478;2022-10-26T19:06:07;6.60;99.90
26743;DHT22;14341;51.256;22.478;2022-10-26T19:09:11;6.90;99.90
26743;DHT22;14341;51.256;22.478;2022-10-26T19:12:17;6.80;99.90
26743;DHT22;14341;51.256;22.478;2022-10-26T19:15:20;6.80;99.90
26743;DHT22;14341;51.256;22.478;2022-10-26T19:18:24;7.00;99.90
26743;DHT22;14341;51.256;22.478;2022-10-26T19:21:30;7.10;99.90
26743;DHT22;14341;51.256;22.478;2022-10-26T19:24:34;7.20;99.90
26743;DHT22;14341;51.256;22.478;2022-10-26T19:27:39;7.20;99.90
26743;DHT22;14341;51.256;22.478;2022-10-26T19:30:42;7.00;99.90